createdAt,value
2022-09-11T00:00:52.894Z,20.56
2022-09-11T00:03:21.514Z,20.54
2022-09-11T00:05:49.395Z,20.54
2022-09-11T00:08:18.569Z,20.54
2022-09-11T00:10:48.342Z,20.51
2022-09-11T00:13:21.432Z,20.50
2022-09-11T00:15:50.446Z,20.50
2022-09-11T00:18:21.760Z,20.51
2022-09-11T00:20:50.714Z,20.50
2022-09-11T00:23:18.715Z,20.47
2022-09-11T00:25:46.762Z,20.47
2022-09-11T00:28:16.136Z,20.46
2022-09-11T00:30:45.591Z,20.45
2022-09-11T00:33:13.525Z,20.44
2022-09-11T00:35:41.520Z,20.44
2022-09-11T00:38:12.125Z,20.42
2022-09-11T00:40:46.600Z,20.41
2022-09-11T00:43:14.907Z,20.41
2022-09-11T00:45:42.810Z,20.41
2022-09-11T00:48:12.186Z,20.40
2022-09-11T00:50:40.109Z,20.39
2022-09-11T00:53:09.960Z,20.39
2022-09-11T00:55:37.945Z,20.38
2022-09-11T00:58:06.944Z,20.37
2022-09-11T01:00:35.206Z,20.36
2022-09-11T01:03:03.247Z,20.35
2022-09-11T01:05:34.788Z,20.35
2022-09-11T01:08:03.725Z,20.33
2022-09-11T01:10:51.729Z,20.34
2022-09-11T01:13:24.829Z,20.32
2022-09-11T01:15:54.965Z,20.32
2022-09-11T01:18:26.932Z,20.31
2022-09-11T01:21:06.097Z,20.30
2022-09-11T01:23:56.644Z,20.31
2022-09-11T01:26:34.918Z,20.30
2022-09-11T01:29:07.169Z,20.30
2022-09-11T01:31:37.416Z,20.28
2022-09-11T01:34:06.819Z,20.26
2022-09-11T01:36:36.649Z,20.26
2022-09-11T01:39:04.621Z,20.27
2022-09-11T01:41:33.876Z,20.26
2022-09-11T01:44:03.836Z,20.22
2022-09-11T01:46:35.293Z,20.23
2022-09-11T01:49:06.661Z,20.23
2022-09-11T01:51:34.585Z,20.22
2022-09-11T01:54:02.618Z,20.21
2022-09-11T01:56:32.232Z,20.21
2022-09-11T01:59:01.069Z,20.17
2022-09-11T02:01:30.135Z,20.19
2022-09-11T02:04:01.116Z,20.13
2022-09-11T02:06:31.681Z,20.16
2022-09-11T02:09:00.344Z,20.17
2022-09-11T02:11:29.429Z,20.17
2022-09-11T02:13:59.899Z,20.16
2022-09-11T02:16:35.269Z,20.17
2022-09-11T02:19:05.537Z,20.18
2022-09-11T02:21:33.816Z,20.16
2022-09-11T02:24:01.788Z,20.17
2022-09-11T02:26:31.339Z,20.17
2022-09-11T02:28:59.250Z,20.16
2022-09-11T02:31:28.160Z,20.16
2022-09-11T02:33:56.103Z,20.16
2022-09-11T02:36:39.595Z,20.16
2022-09-11T02:39:17.099Z,20.16
2022-09-11T02:41:50.400Z,20.15
2022-09-11T02:44:21.333Z,20.18
2022-09-11T02:46:56.981Z,20.18
2022-09-11T02:49:27.345Z,20.17
2022-09-11T02:52:03.736Z,20.18
2022-09-11T02:54:35.305Z,20.18
2022-09-11T02:57:05.386Z,20.18
2022-09-11T02:59:35.117Z,20.18
2022-09-11T03:02:02.985Z,20.17
2022-09-11T03:04:31.343Z,20.19
2022-09-11T03:07:00.741Z,20.21
2022-09-11T03:09:28.753Z,20.18
2022-09-11T03:11:56.627Z,20.18
2022-09-11T03:14:24.517Z,20.20
2022-09-11T03:16:52.570Z,20.20
2022-09-11T03:19:20.455Z,20.20
2022-09-11T03:21:48.353Z,20.22
2022-09-11T03:24:17.904Z,20.22
2022-09-11T03:26:45.781Z,20.22
2022-09-11T03:29:13.722Z,20.23
2022-09-11T03:31:41.683Z,20.21
2022-09-11T03:34:10.353Z,20.22
2022-09-11T03:36:38.267Z,20.22
2022-09-11T03:39:06.433Z,20.23
2022-09-11T03:41:35.746Z,20.23
2022-09-11T03:44:04.080Z,20.21
2022-09-11T03:46:33.089Z,20.22
2022-09-11T03:49:01.166Z,20.21
2022-09-11T03:51:30.033Z,20.19
2022-09-11T03:53:59.657Z,20.20
2022-09-11T03:56:27.743Z,20.19
2022-09-11T03:58:58.244Z,20.19
2022-09-11T04:01:26.413Z,20.18
2022-09-11T04:03:54.571Z,20.19
2022-09-11T04:06:22.487Z,20.18
2022-09-11T04:08:50.419Z,20.17
2022-09-11T04:11:18.276Z,20.17
2022-09-11T04:13:46.174Z,20.19
2022-09-11T04:16:16.274Z,20.17
2022-09-11T04:18:45.908Z,20.17
2022-09-11T04:21:14.803Z,20.15
2022-09-11T04:23:42.823Z,20.14
2022-09-11T04:26:15.860Z,20.15
2022-09-11T04:28:43.910Z,20.13
2022-09-11T04:31:11.996Z,20.13
2022-09-11T04:33:41.520Z,20.14
2022-09-11T04:36:10.243Z,20.13
2022-09-11T04:38:38.353Z,20.12
2022-09-11T04:41:06.940Z,20.14
2022-09-11T04:43:35.289Z,20.13
2022-09-11T04:46:03.492Z,19.97
2022-09-11T04:48:31.460Z,20.12
2022-09-11T04:51:05.470Z,20.11
2022-09-11T04:53:33.408Z,20.12
2022-09-11T04:56:05.660Z,20.09
2022-09-11T04:58:33.559Z,20.09
2022-09-11T05:01:01.474Z,20.07
2022-09-11T05:03:29.917Z,20.08
2022-09-11T05:05:57.819Z,20.08
2022-09-11T05:08:27.654Z,20.08
2022-09-11T05:10:55.567Z,20.08
2022-09-11T05:13:23.607Z,20.06
2022-09-11T05:15:51.525Z,20.07
2022-09-11T05:18:19.404Z,20.06
2022-09-11T05:20:47.278Z,20.06
2022-09-11T05:23:15.220Z,20.05
2022-09-11T05:25:44.435Z,20.06
2022-09-11T05:28:12.517Z,20.05
2022-09-11T05:30:40.367Z,20.06
2022-09-11T05:33:08.983Z,20.06
2022-09-11T05:35:36.884Z,20.06
2022-09-11T05:38:04.813Z,20.06
2022-09-11T05:40:32.700Z,20.06
2022-09-11T05:43:02.267Z,20.05
2022-09-11T05:45:30.329Z,20.04
2022-09-11T05:47:58.300Z,20.05
2022-09-11T05:50:26.472Z,20.05
2022-09-11T05:52:54.582Z,20.05
2022-09-11T05:55:22.465Z,20.05
2022-09-11T05:57:51.463Z,20.06
2022-09-11T06:00:21.021Z,20.08
2022-09-11T06:02:49.137Z,20.10
2022-09-11T06:05:17.302Z,20.08
2022-09-11T06:07:45.208Z,20.10
2022-09-11T06:10:13.063Z,20.10
2022-09-11T06:12:40.966Z,20.10
2022-09-11T06:15:24.918Z,20.12
2022-09-11T06:17:59.548Z,20.09
2022-09-11T06:20:27.417Z,20.08
2022-09-11T06:22:56.610Z,20.10
2022-09-11T06:25:25.256Z,20.12
2022-09-11T06:27:53.161Z,20.12
2022-09-11T06:30:21.093Z,20.12
2022-09-11T06:32:49.741Z,20.12
2022-09-11T06:35:19.091Z,20.15
2022-09-11T06:37:47.072Z,20.17
2022-09-11T06:40:15.038Z,20.19
2022-09-11T06:42:42.971Z,20.20
2022-09-11T06:45:11.997Z,20.22
2022-09-11T06:47:39.871Z,20.22
2022-09-11T06:50:08.311Z,20.25
2022-09-11T06:52:37.591Z,20.26
2022-09-11T06:55:05.975Z,20.27
2022-09-11T06:57:33.879Z,20.30
2022-09-11T07:00:01.713Z,20.31
2022-09-11T07:02:29.639Z,20.32
2022-09-11T07:04:57.529Z,20.31
2022-09-11T07:07:25.469Z,20.33
2022-09-11T07:09:54.738Z,20.34
2022-09-11T07:12:23.943Z,20.34
2022-09-11T07:14:51.860Z,20.34
2022-09-11T07:17:19.874Z,20.34
2022-09-11T07:19:47.722Z,20.34
2022-09-11T07:22:15.764Z,20.36
2022-09-11T07:24:43.621Z,20.40
2022-09-11T07:27:13.907Z,20.42
2022-09-11T07:29:41.823Z,20.42
2022-09-11T07:32:10.081Z,20.42
2022-09-11T07:34:37.975Z,20.39
2022-09-11T07:37:06.050Z,20.39
2022-09-11T07:39:33.894Z,20.42
2022-09-11T07:42:01.824Z,20.42
2022-09-11T07:44:31.086Z,20.43
2022-09-11T07:46:59.082Z,20.46
2022-09-11T07:49:27.386Z,20.46
2022-09-11T07:51:55.346Z,20.44
2022-09-11T07:54:23.252Z,20.45
2022-09-11T07:56:51.108Z,20.45
2022-09-11T07:59:19.195Z,20.48
2022-09-11T08:01:50.185Z,20.52
2022-09-11T08:04:18.114Z,20.55
2022-09-11T08:06:46.014Z,20.56
2022-09-11T08:09:15.631Z,20.59
2022-09-11T08:11:45.158Z,20.60
2022-09-11T08:14:14.356Z,20.60
2022-09-11T08:16:42.405Z,20.60
2022-09-11T08:19:17.243Z,20.62
2022-09-11T08:21:45.342Z,20.63
2022-09-11T08:24:13.487Z,20.64
2022-09-11T08:26:43.714Z,20.64
2022-09-11T08:29:13.609Z,20.66
2022-09-11T08:31:41.633Z,20.67
2022-09-11T08:34:12.204Z,20.70
2022-09-11T08:36:40.211Z,20.72
2022-09-11T08:39:09.120Z,20.75
2022-09-11T08:41:42.052Z,20.78
2022-09-11T08:44:15.331Z,20.79
2022-09-11T08:46:45.535Z,20.79
2022-09-11T08:49:19.273Z,20.90
2022-09-11T08:51:48.901Z,20.93
2022-09-11T08:54:32.017Z,20.91
2022-09-11T08:57:07.109Z,20.89
2022-09-11T09:00:12.726Z,20.90
2022-09-11T09:02:54.982Z,20.89
2022-09-11T09:05:29.395Z,20.90
2022-09-11T09:08:04.942Z,20.91
2022-09-11T09:10:40.596Z,20.92
2022-09-11T09:13:15.199Z,20.88
2022-09-11T09:15:44.392Z,20.90
2022-09-11T09:18:13.619Z,20.90
2022-09-11T09:20:45.238Z,20.92
2022-09-11T09:23:15.048Z,20.93
2022-09-11T09:25:43.385Z,20.98
2022-09-11T09:28:18.734Z,21.07
2022-09-11T09:30:49.665Z,21.10
2022-09-11T09:33:27.212Z,21.13
2022-09-11T09:35:57.102Z,21.17
2022-09-11T09:38:28.239Z,21.18
2022-09-11T09:41:00.853Z,21.25
2022-09-11T09:43:36.720Z,21.27
2022-09-11T09:46:13.039Z,21.28
2022-09-11T09:48:41.074Z,21.29
2022-09-11T09:51:14.141Z,21.32
2022-09-11T09:53:43.302Z,21.33
2022-09-11T09:56:11.778Z,21.28
2022-09-11T09:58:42.376Z,21.30
2022-09-11T10:01:25.482Z,21.27
2022-09-11T10:04:06.680Z,21.25
2022-09-11T10:06:36.106Z,21.24
2022-09-11T10:09:03.962Z,21.23
2022-09-11T10:11:31.862Z,21.27
2022-09-11T10:14:00.214Z,21.35
2022-09-11T10:16:28.556Z,21.39
2022-09-11T10:18:56.909Z,21.42
2022-09-11T10:21:29.397Z,21.45
2022-09-11T10:23:59.716Z,21.51
2022-09-11T10:26:30.045Z,21.53
2022-09-11T10:29:01.045Z,21.56
2022-09-11T10:31:30.151Z,21.58
2022-09-11T10:33:58.833Z,21.59
2022-09-11T10:36:28.251Z,21.57
2022-09-11T10:38:56.382Z,21.53
2022-09-11T10:41:26.223Z,21.52
2022-09-11T10:43:56.650Z,21.52
2022-09-11T10:46:38.557Z,21.54
2022-09-11T10:49:16.491Z,21.54
2022-09-11T10:51:57.158Z,21.55
2022-09-11T10:54:31.279Z,21.60
2022-09-11T10:57:05.427Z,21.65
2022-09-11T10:59:40.856Z,21.66
2022-09-11T11:02:19.058Z,21.67
2022-09-11T11:04:46.989Z,21.66
2022-09-11T11:07:21.415Z,21.67
2022-09-11T11:09:55.426Z,21.68
2022-09-11T11:12:33.378Z,21.66
2022-09-11T11:15:26.956Z,21.65
2022-09-11T11:18:06.501Z,21.68
2022-09-11T11:20:37.320Z,21.74
2022-09-11T11:23:18.769Z,21.73
2022-09-11T11:25:50.398Z,21.71
2022-09-11T11:28:47.917Z,21.70
2022-09-11T11:31:23.629Z,21.71
2022-09-11T11:33:59.847Z,21.73
2022-09-11T11:36:31.721Z,21.76
2022-09-11T11:39:02.214Z,21.80
2022-09-11T11:41:31.404Z,21.83
2022-09-11T11:44:02.599Z,21.88
2022-09-11T11:46:31.715Z,21.93
2022-09-11T11:49:00.415Z,21.94
2022-09-11T11:51:28.915Z,21.93
2022-09-11T11:54:00.532Z,21.90
2022-09-11T11:56:33.422Z,21.85
2022-09-11T11:59:04.356Z,21.84
2022-09-11T12:01:37.408Z,21.88
2022-09-11T12:04:06.329Z,21.90
2022-09-11T12:06:35.311Z,21.95
2022-09-11T12:09:03.294Z,21.96
2022-09-11T12:11:32.571Z,21.99
2022-09-11T12:14:00.447Z,22.01
2022-09-11T12:16:31.780Z,22.03
2022-09-11T12:19:08.115Z,22.07
2022-09-11T12:21:40.800Z,22.12
2022-09-11T12:24:19.878Z,22.11
2022-09-11T12:26:47.774Z,22.15
2022-09-11T12:29:43.878Z,22.18
2022-09-11T12:32:29.062Z,22.24
2022-09-11T12:35:00.157Z,22.25
2022-09-11T12:37:28.587Z,22.29
2022-09-11T12:39:59.971Z,22.30
2022-09-11T12:42:47.665Z,22.34
2022-09-11T12:45:31.572Z,22.36
2022-09-11T12:48:09.722Z,22.38
2022-09-11T12:50:37.763Z,22.39
2022-09-11T12:53:05.747Z,22.42
2022-09-11T12:55:35.415Z,22.44
2022-09-11T12:58:04.456Z,22.49
2022-09-11T13:00:36.270Z,22.52
2022-09-11T13:03:04.203Z,22.55
2022-09-11T13:05:37.729Z,22.61
2022-09-11T13:08:07.598Z,22.63
2022-09-11T13:10:36.660Z,22.69
2022-09-11T13:13:05.616Z,22.72
2022-09-11T13:15:37.921Z,22.75
2022-09-11T13:18:33.030Z,22.86
2022-09-11T13:21:14.300Z,22.93
2022-09-11T13:23:42.963Z,22.99
2022-09-11T13:26:15.291Z,23.07
2022-09-11T13:28:45.457Z,23.14
2022-09-11T13:31:15.511Z,23.16
2022-09-11T13:33:43.630Z,23.22
2022-09-11T13:36:14.191Z,23.31
2022-09-11T13:38:42.291Z,23.36
2022-09-11T13:41:14.391Z,23.48
2022-09-11T13:43:45.257Z,23.68
2022-09-11T13:46:21.221Z,23.96
2022-09-11T13:48:50.187Z,23.98
2022-09-11T13:51:21.198Z,24.43
2022-09-11T13:53:56.139Z,24.71
2022-09-11T13:56:47.147Z,24.76
2022-09-11T13:59:38.440Z,25.09
2022-09-11T14:02:08.649Z,26.31
2022-09-11T14:04:40.687Z,27.12
2022-09-11T14:07:17.307Z,27.55
2022-09-11T14:09:48.744Z,27.28
2022-09-11T14:12:16.606Z,26.80
2022-09-11T14:14:47.008Z,27.31
2022-09-11T14:17:17.200Z,27.08
2022-09-11T14:19:45.638Z,26.66
2022-09-11T14:22:22.738Z,27.13
2022-09-11T14:24:55.042Z,27.29
2022-09-11T14:27:36.573Z,27.34
2022-09-11T14:30:24.750Z,27.29
2022-09-11T14:33:16.734Z,27.20
2022-09-11T14:35:46.280Z,27.09
2022-09-11T14:38:16.040Z,26.98
2022-09-11T14:40:48.599Z,26.87
2022-09-11T14:43:17.581Z,26.77
2022-09-11T14:45:45.558Z,26.62
2022-09-11T14:48:14.442Z,26.52
2022-09-11T14:50:42.514Z,26.39
2022-09-11T14:53:17.000Z,26.37
2022-09-11T14:55:44.884Z,26.31
2022-09-11T14:58:12.771Z,26.27
2022-09-11T15:00:41.057Z,26.23
2022-09-11T15:03:09.025Z,26.22
2022-09-11T15:05:38.038Z,26.21
2022-09-11T15:08:06.250Z,26.21
2022-09-11T15:10:35.695Z,26.21
2022-09-11T15:13:04.335Z,26.21
2022-09-11T15:15:35.082Z,26.22
2022-09-11T15:18:03.048Z,26.23
2022-09-11T15:20:30.936Z,26.25
2022-09-11T15:22:58.857Z,26.26
2022-09-11T15:25:26.766Z,26.28
2022-09-11T15:27:56.068Z,26.28
2022-09-11T15:30:25.686Z,26.28
2022-09-11T15:32:53.621Z,26.29
2022-09-11T15:35:23.236Z,26.28
2022-09-11T15:37:51.546Z,26.25
2022-09-11T15:40:19.451Z,26.21
2022-09-11T15:42:49.750Z,26.16
2022-09-11T15:45:19.467Z,25.99
2022-09-11T15:47:47.674Z,25.80
2022-09-11T15:50:18.239Z,25.69
2022-09-11T15:52:46.857Z,25.58
2022-09-11T15:55:14.855Z,25.49
2022-09-11T15:57:44.223Z,25.38
2022-09-11T16:00:15.238Z,25.31
2022-09-11T16:02:44.527Z,25.27
2022-09-11T16:05:12.412Z,25.22
2022-09-11T16:07:41.226Z,25.18
2022-09-11T16:10:10.039Z,25.15
2022-09-11T16:12:38.366Z,25.10
2022-09-11T16:15:07.188Z,25.05
2022-09-11T16:17:35.230Z,25.01
2022-09-11T16:20:04.921Z,24.99
2022-09-11T16:22:34.535Z,24.95
2022-09-11T16:25:02.756Z,24.90
2022-09-11T16:27:30.632Z,24.86
2022-09-11T16:30:26.217Z,24.81
2022-09-11T16:32:46.737Z,24.77
2022-09-11T16:35:17.535Z,24.71
2022-09-11T16:37:45.705Z,24.67
2022-09-11T16:40:13.618Z,24.63
2022-09-11T16:42:41.555Z,24.59
2022-09-11T16:45:10.160Z,24.54
2022-09-11T16:47:38.075Z,24.50
2022-09-11T16:50:07.803Z,24.44
2022-09-11T16:52:38.613Z,24.38
2022-09-11T16:55:07.747Z,24.31
2022-09-11T16:57:35.653Z,24.24
2022-09-11T17:00:04.520Z,24.18
2022-09-11T17:02:32.391Z,24.14
2022-09-11T17:05:00.293Z,24.08
2022-09-11T17:07:28.186Z,24.02
2022-09-11T17:09:57.412Z,23.98
2022-09-11T17:12:25.314Z,23.95
2022-09-11T17:14:53.199Z,23.91
2022-09-11T17:17:21.406Z,23.86
2022-09-11T17:19:51.132Z,23.80
2022-09-11T17:22:19.206Z,23.77
2022-09-11T17:24:47.108Z,23.71
2022-09-11T17:27:16.536Z,23.66
2022-09-11T17:29:44.974Z,23.62
2022-09-11T17:32:27.962Z,23.56
2022-09-11T17:34:56.804Z,23.51
2022-09-11T17:37:25.884Z,23.46
2022-09-11T17:39:53.892Z,23.40
2022-09-11T17:42:23.797Z,23.35
2022-09-11T17:44:51.691Z,23.30
2022-09-11T17:47:19.605Z,23.25
2022-09-11T17:49:48.401Z,23.21
2022-09-11T17:52:16.290Z,23.16
2022-09-11T17:54:44.129Z,23.11
2022-09-11T17:57:12.306Z,23.06
2022-09-11T17:59:42.539Z,23.00
2022-09-11T18:02:11.683Z,22.97
2022-09-11T18:04:39.718Z,22.92
2022-09-11T18:07:07.723Z,22.88
2022-09-11T18:09:35.620Z,22.84
2022-09-11T18:12:04.126Z,22.81
2022-09-11T18:14:32.304Z,22.76
2022-09-11T18:17:01.538Z,22.71
2022-09-11T18:19:30.267Z,22.68
2022-09-11T18:21:59.747Z,22.65
2022-09-11T18:24:29.930Z,22.60
2022-09-11T18:27:00.865Z,22.57
2022-09-11T18:29:30.172Z,22.54
2022-09-11T18:31:59.876Z,22.50
2022-09-11T18:34:31.162Z,22.47
2022-09-11T18:36:59.981Z,22.44
2022-09-11T18:39:28.132Z,22.39
2022-09-11T18:41:56.037Z,22.37
2022-09-11T18:44:25.269Z,22.34
2022-09-11T18:46:53.718Z,22.32
2022-09-11T18:49:21.821Z,22.30
2022-09-11T18:51:51.207Z,22.27
2022-09-11T18:54:20.144Z,22.24
2022-09-11T18:56:48.588Z,22.22
2022-09-11T18:59:16.484Z,22.18
2022-09-11T19:01:44.598Z,22.17
2022-09-11T19:04:13.082Z,22.14
2022-09-11T19:06:41.145Z,22.12
2022-09-11T19:09:12.687Z,22.09
2022-09-11T19:11:40.605Z,22.07
2022-09-11T19:14:09.170Z,22.06
2022-09-11T19:16:37.234Z,22.06
2022-09-11T19:19:06.973Z,22.04
2022-09-11T19:21:35.039Z,22.02
2022-09-11T19:24:03.443Z,22.01
2022-09-11T19:26:33.680Z,21.98
2022-09-11T19:29:01.920Z,21.95
2022-09-11T19:31:30.182Z,21.95
2022-09-11T19:34:00.257Z,21.94
2022-09-11T19:36:29.156Z,21.92
2022-09-11T19:39:00.538Z,21.92
2022-09-11T19:41:30.010Z,21.91
2022-09-11T19:44:01.613Z,21.86
2022-09-11T19:46:30.278Z,21.86
2022-09-11T19:49:00.493Z,21.81
2022-09-11T19:51:29.465Z,21.74
2022-09-11T19:53:58.181Z,21.70
2022-09-11T19:56:27.897Z,21.69
2022-09-11T19:58:56.016Z,21.71
2022-09-11T20:01:25.870Z,21.71
2022-09-11T20:03:54.656Z,21.71
2022-09-11T20:06:23.455Z,21.70
2022-09-11T20:09:02.925Z,21.69
2022-09-11T20:11:39.513Z,21.64
2022-09-11T20:14:07.417Z,21.65
2022-09-11T20:16:36.772Z,21.69
2022-09-11T20:19:06.585Z,21.72
2022-09-11T20:21:35.430Z,21.73
2022-09-11T20:24:04.842Z,21.76
2022-09-11T20:26:32.754Z,21.79
2022-09-11T20:29:01.963Z,21.80
2022-09-11T20:31:36.930Z,21.79
2022-09-11T20:34:09.851Z,21.79
2022-09-11T20:36:37.853Z,21.75
2022-09-11T20:39:05.779Z,21.71
2022-09-11T20:41:33.680Z,21.65
2022-09-11T20:44:07.558Z,21.61
2022-09-11T20:46:38.426Z,21.43
2022-09-11T20:49:06.383Z,21.54
2022-09-11T20:51:35.717Z,21.52
2022-09-11T20:54:03.626Z,21.50
2022-09-11T20:56:31.588Z,21.48
2022-09-11T20:59:00.639Z,21.47
2022-09-11T21:01:32.330Z,21.51
2022-09-11T21:04:00.575Z,21.47
2022-09-11T21:06:30.061Z,21.46
2022-09-11T21:09:00.586Z,21.43
2022-09-11T21:11:29.532Z,21.42
2022-09-11T21:13:57.479Z,21.39
2022-09-11T21:16:25.642Z,21.39
2022-09-11T21:18:54.551Z,21.36
2022-09-11T21:21:22.804Z,21.35
2022-09-11T21:23:50.691Z,21.34
2022-09-11T21:26:19.923Z,21.32
2022-09-11T21:28:47.985Z,21.31
2022-09-11T21:31:15.859Z,21.30
2022-09-11T21:33:44.137Z,21.30
2022-09-11T21:36:12.090Z,21.30
2022-09-11T21:38:40.020Z,21.28
2022-09-11T21:41:09.087Z,21.28
2022-09-11T21:43:38.552Z,21.30
2022-09-11T21:46:08.487Z,21.27
2022-09-11T21:48:36.541Z,21.23
2022-09-11T21:51:09.778Z,21.20
2022-09-11T21:53:37.689Z,21.20
2022-09-11T21:56:05.856Z,21.19
2022-09-11T21:58:33.703Z,21.17
2022-09-11T22:01:05.922Z,21.18
2022-09-11T22:03:34.486Z,21.16
2022-09-11T22:06:06.365Z,21.19
2022-09-11T22:08:35.325Z,21.16
2022-09-11T22:11:03.735Z,21.12
2022-09-11T22:13:31.621Z,21.10
2022-09-11T22:16:00.628Z,21.08
2022-09-11T22:18:29.928Z,21.07
2022-09-11T22:21:00.475Z,21.06
2022-09-11T22:23:29.420Z,21.06
2022-09-11T22:26:00.404Z,21.04
2022-09-11T22:28:28.329Z,21.09
2022-09-11T22:30:56.224Z,21.18
2022-09-11T22:33:24.316Z,21.18
2022-09-11T22:35:53.562Z,21.11
2022-09-11T22:38:21.473Z,21.08
2022-09-11T22:40:53.603Z,21.05
2022-09-11T22:43:21.651Z,21.04
2022-09-11T22:45:52.801Z,21.01
2022-09-11T22:48:23.678Z,21.07
2022-09-11T22:50:54.159Z,21.06
2022-09-11T22:53:22.197Z,21.08
2022-09-11T22:55:50.218Z,21.09
2022-09-11T22:58:21.051Z,21.13
2022-09-11T23:00:49.747Z,21.15
2022-09-11T23:03:17.667Z,21.10
2022-09-11T23:06:02.905Z,21.07
2022-09-11T23:08:37.008Z,21.03
2022-09-11T23:11:07.161Z,21.01
2022-09-11T23:13:35.476Z,20.99
2022-09-11T23:16:11.301Z,20.96
2022-09-11T23:18:39.325Z,20.93
2022-09-11T23:21:07.332Z,20.92
2022-09-11T23:23:40.952Z,20.89
2022-09-11T23:26:08.842Z,20.88
2022-09-11T23:28:36.801Z,20.87
2022-09-11T23:31:04.873Z,20.84
2022-09-11T23:33:32.783Z,20.84
2022-09-11T23:36:05.024Z,20.86
2022-09-11T23:38:32.914Z,20.86
2022-09-11T23:41:02.203Z,20.80
2022-09-11T23:43:30.117Z,20.77
2022-09-11T23:45:58.048Z,20.76
2022-09-11T23:48:26.036Z,20.74
2022-09-11T23:50:53.942Z,20.72
2022-09-11T23:53:21.831Z,20.68
2022-09-11T23:55:49.763Z,20.67
2022-09-11T23:58:19.026Z,20.65
